createdAt,value
2022-12-15T00:02:27.799Z,64.00
2022-12-15T00:05:13.007Z,64.03
2022-12-15T00:07:59.494Z,64.96
2022-12-15T00:10:44.974Z,65.34
2022-12-15T00:13:31.566Z,65.29
2022-12-15T00:16:17.691Z,66.28
2022-12-15T00:19:03.477Z,66.66
2022-12-15T00:21:48.804Z,67.26
2022-12-15T00:24:35.437Z,66.14
2022-12-15T00:27:20.764Z,65.47
2022-12-15T00:30:06.216Z,64.89
2022-12-15T00:32:51.648Z,64.53
2022-12-15T00:35:37.064Z,63.76
2022-12-15T00:38:26.453Z,63.60
2022-12-15T00:40:59.378Z,63.50
2022-12-15T00:43:27.835Z,63.83
2022-12-15T00:46:13.804Z,64.16
2022-12-15T00:48:42.097Z,64.28
2022-12-15T00:51:08.912Z,63.95
2022-12-15T00:53:54.789Z,64.00
2022-12-15T00:56:41.401Z,63.93
2022-12-15T00:59:26.986Z,63.79
2022-12-15T01:02:12.307Z,64.06
2022-12-15T01:04:57.595Z,65.12
2022-12-15T01:07:42.797Z,65.89
2022-12-15T01:10:28.177Z,66.93
2022-12-15T01:13:14.965Z,67.57
2022-12-15T01:16:00.177Z,68.06
2022-12-15T01:18:49.555Z,68.91
2022-12-15T01:21:17.547Z,69.29
2022-12-15T01:23:45.267Z,69.77
2022-12-15T01:26:13.228Z,69.51
2022-12-15T01:28:42.311Z,69.28
2022-12-15T01:31:13.699Z,68.94
2022-12-15T01:33:42.644Z,69.28
2022-12-15T01:36:11.450Z,69.52
2022-12-15T01:38:39.260Z,69.78
2022-12-15T01:41:09.520Z,69.93
2022-12-15T01:43:39.448Z,69.86
2022-12-15T01:46:10.271Z,70.13
2022-12-15T01:48:43.120Z,70.04
2022-12-15T01:51:16.815Z,70.01
2022-12-15T01:53:50.122Z,69.21
2022-12-15T01:56:18.794Z,68.11
2022-12-15T01:58:49.772Z,68.13
2022-12-15T02:01:19.479Z,67.98
2022-12-15T02:03:48.268Z,68.71
2022-12-15T02:06:17.210Z,69.29
2022-12-15T02:08:47.459Z,69.80
2022-12-15T02:11:32.728Z,69.74
2022-12-15T02:14:03.577Z,69.27
2022-12-15T02:16:46.077Z,69.49
2022-12-15T02:19:40.453Z,69.58
2022-12-15T02:22:20.351Z,69.55
2022-12-15T02:25:08.987Z,69.55
2022-12-15T02:27:57.647Z,69.91
2022-12-15T02:31:08.195Z,69.40
2022-12-15T02:33:39.109Z,69.07
2022-12-15T02:36:16.327Z,68.99
2022-12-15T02:38:44.978Z,69.36
2022-12-15T02:41:36.364Z,69.13
2022-12-15T02:44:11.261Z,69.23
2022-12-15T02:46:52.372Z,69.28
2022-12-15T02:49:31.224Z,68.52
2022-12-15T02:52:10.933Z,67.17
2022-12-15T02:55:02.305Z,66.31
2022-12-15T02:57:37.583Z,66.82
2022-12-15T03:00:09.693Z,67.61
2022-12-15T03:02:42.503Z,66.93
2022-12-15T03:05:10.967Z,66.00
2022-12-15T03:07:38.870Z,66.19
2022-12-15T03:10:08.247Z,66.96
2022-12-15T03:12:35.938Z,67.39
2022-12-15T03:15:03.609Z,67.78
2022-12-15T03:17:31.310Z,68.16
2022-12-15T03:20:00.533Z,68.54
2022-12-15T03:22:28.225Z,68.83
2022-12-15T03:24:55.960Z,69.02
2022-12-15T03:27:23.678Z,69.10
2022-12-15T03:29:51.335Z,69.17
2022-12-15T03:32:19.116Z,68.98
2022-12-15T03:34:46.875Z,68.77
2022-12-15T03:37:15.883Z,68.95
2022-12-15T03:39:43.561Z,69.00
2022-12-15T03:42:11.385Z,68.59
2022-12-15T03:44:39.077Z,68.60
2022-12-15T03:47:07.003Z,68.95
2022-12-15T03:49:34.683Z,69.15
2022-12-15T03:52:02.350Z,69.27
2022-12-15T03:54:31.428Z,69.56
2022-12-15T03:56:59.783Z,69.78
2022-12-15T03:59:27.437Z,69.97
2022-12-15T04:01:55.195Z,69.55
2022-12-15T04:04:22.903Z,69.62
2022-12-15T04:06:52.265Z,69.61
2022-12-15T04:09:20.324Z,69.67
2022-12-15T04:11:49.336Z,69.80
2022-12-15T04:14:16.965Z,69.65
2022-12-15T04:16:44.740Z,69.75
2022-12-15T04:19:29.868Z,69.77
2022-12-15T04:21:58.093Z,69.18
2022-12-15T04:24:43.400Z,68.86
2022-12-15T04:27:30.041Z,68.81
2022-12-15T04:30:15.339Z,68.41
2022-12-15T04:33:00.836Z,68.53
2022-12-15T04:35:46.219Z,68.76
2022-12-15T04:38:35.273Z,68.88
2022-12-15T04:41:20.663Z,68.56
2022-12-15T04:44:07.199Z,68.55
2022-12-15T04:46:52.644Z,69.05
2022-12-15T04:49:38.140Z,68.55
2022-12-15T04:52:23.450Z,68.28
2022-12-15T04:55:08.928Z,68.54
2022-12-15T04:57:54.361Z,68.55
2022-12-15T05:00:41.296Z,68.61
2022-12-15T05:03:27.238Z,68.71
2022-12-15T05:06:12.501Z,68.12
2022-12-15T05:08:57.974Z,68.12
2022-12-15T05:11:43.285Z,67.99
2022-12-15T05:14:28.603Z,68.07
2022-12-15T05:17:15.392Z,68.43
2022-12-15T05:20:00.769Z,68.66
2022-12-15T05:22:46.256Z,68.60
2022-12-15T05:25:31.489Z,68.84
2022-12-15T05:28:16.950Z,69.05
2022-12-15T05:31:02.387Z,69.01
2022-12-15T05:33:31.777Z,69.11
2022-12-15T05:35:59.686Z,69.06
2022-12-15T05:38:27.394Z,68.70
2022-12-15T05:40:58.375Z,68.15
2022-12-15T05:43:26.724Z,68.32
2022-12-15T05:45:54.591Z,68.25
2022-12-15T05:48:22.391Z,67.79
2022-12-15T05:50:51.580Z,67.92
2022-12-15T05:53:19.207Z,68.06
2022-12-15T05:55:46.941Z,67.60
2022-12-15T05:58:14.603Z,67.27
2022-12-15T06:00:42.305Z,67.24
2022-12-15T06:03:10.180Z,67.64
2022-12-15T06:05:38.409Z,68.06
2022-12-15T06:08:07.587Z,68.62
2022-12-15T06:10:35.268Z,68.76
2022-12-15T06:13:02.967Z,68.10
2022-12-15T06:15:30.672Z,67.89
2022-12-15T06:17:58.406Z,68.26
2022-12-15T06:20:26.070Z,68.04
2022-12-15T06:22:53.680Z,66.75
2022-12-15T06:25:22.839Z,66.44
2022-12-15T06:27:50.527Z,66.95
2022-12-15T06:30:19.092Z,67.48
2022-12-15T06:32:46.804Z,67.63
2022-12-15T06:35:17.655Z,67.61
2022-12-15T06:37:45.291Z,67.66
2022-12-15T06:40:13.092Z,67.37
2022-12-15T06:42:42.103Z,67.80
2022-12-15T06:45:10.696Z,68.25
2022-12-15T06:47:38.433Z,67.93
2022-12-15T06:50:07.840Z,68.24
2022-12-15T06:52:35.567Z,68.34
2022-12-15T06:55:03.343Z,68.24
2022-12-15T06:57:31.115Z,68.38
2022-12-15T07:00:00.493Z,68.47
2022-12-15T07:02:30.167Z,68.35
2022-12-15T07:04:57.918Z,68.19
2022-12-15T07:07:25.893Z,67.73
2022-12-15T07:09:53.566Z,67.12
2022-12-15T07:12:21.243Z,67.08
2022-12-15T07:14:53.423Z,67.14
2022-12-15T07:17:23.247Z,66.97
2022-12-15T07:19:50.972Z,66.46
2022-12-15T07:22:18.612Z,66.36
2022-12-15T07:24:46.412Z,66.48
2022-12-15T07:27:14.258Z,66.40
2022-12-15T07:29:42.144Z,66.48
2022-12-15T07:32:09.803Z,66.84
2022-12-15T07:34:38.774Z,67.17
2022-12-15T07:37:06.565Z,67.32
2022-12-15T07:39:34.327Z,67.61
2022-12-15T07:42:01.971Z,67.24
2022-12-15T07:44:30.023Z,67.05
2022-12-15T07:46:57.710Z,66.97
2022-12-15T07:49:25.400Z,66.68
2022-12-15T07:51:58.346Z,66.51
2022-12-15T07:54:26.014Z,66.44
2022-12-15T07:56:53.654Z,66.56
2022-12-15T07:59:21.354Z,66.41
2022-12-15T08:01:49.512Z,66.57
2022-12-15T08:04:17.466Z,66.74
2022-12-15T08:06:45.638Z,66.18
2022-12-15T08:09:14.925Z,65.99
2022-12-15T08:11:43.109Z,66.01
2022-12-15T08:14:16.966Z,66.13
2022-12-15T08:16:45.789Z,65.91
2022-12-15T08:19:15.569Z,65.86
2022-12-15T08:21:45.472Z,65.43
2022-12-15T08:24:15.769Z,65.52
2022-12-15T08:26:50.497Z,64.75
2022-12-15T08:29:49.562Z,64.06
2022-12-15T08:32:06.696Z,63.57
2022-12-15T08:34:34.495Z,63.45
2022-12-15T08:37:02.287Z,63.56
2022-12-15T08:39:31.462Z,63.57
2022-12-15T08:41:59.107Z,63.17
2022-12-15T08:44:28.027Z,63.68
2022-12-15T08:46:55.665Z,63.69
2022-12-15T08:49:23.521Z,63.69
2022-12-15T08:51:52.227Z,63.85
2022-12-15T08:54:21.377Z,63.80
2022-12-15T08:56:50.576Z,64.05
2022-12-15T08:59:19.234Z,63.86
2022-12-15T09:01:47.354Z,63.58
2022-12-15T09:04:15.643Z,63.29
2022-12-15T09:06:43.739Z,63.33
2022-12-15T09:09:14.665Z,62.90
2022-12-15T09:11:42.474Z,62.77
2022-12-15T09:14:11.713Z,62.64
2022-12-15T09:16:39.662Z,62.26
2022-12-15T09:19:08.220Z,61.65
2022-12-15T09:21:36.319Z,61.50
2022-12-15T09:24:05.069Z,61.32
2022-12-15T09:26:34.864Z,61.13
2022-12-15T09:29:03.067Z,61.11
2022-12-15T09:31:34.493Z,61.30
2022-12-15T09:34:02.719Z,61.50
2022-12-15T09:36:32.730Z,61.11
2022-12-15T09:39:02.846Z,60.32
2022-12-15T09:41:33.095Z,59.93
2022-12-15T09:44:03.654Z,59.25
2022-12-15T09:46:50.085Z,59.32
2022-12-15T09:49:30.575Z,59.18
2022-12-15T09:52:08.818Z,58.67
2022-12-15T09:54:39.041Z,59.30
2022-12-15T09:57:14.374Z,59.13
2022-12-15T09:59:56.639Z,59.51
2022-12-15T10:02:58.240Z,59.76
2022-12-15T10:08:30.375Z,61.21
2022-12-15T10:11:00.847Z,61.42
2022-12-15T10:13:41.212Z,61.98
2022-12-15T10:16:19.796Z,61.90
2022-12-15T10:19:01.405Z,60.93
2022-12-15T10:21:46.259Z,60.65
2022-12-15T10:24:44.575Z,60.12
2022-12-15T10:27:33.306Z,59.62
2022-12-15T10:30:04.515Z,59.44
2022-12-15T10:32:50.371Z,59.15
2022-12-15T10:35:35.966Z,58.94
2022-12-15T10:38:06.205Z,58.56
2022-12-15T10:40:51.246Z,58.26
2022-12-15T10:43:29.236Z,57.76
2022-12-15T10:46:13.508Z,56.62
2022-12-15T10:48:42.040Z,55.95
2022-12-15T10:51:20.427Z,55.78
2022-12-15T10:53:50.609Z,56.51
2022-12-15T10:56:28.823Z,56.54
2022-12-15T10:59:03.604Z,57.30
2022-12-15T11:01:33.480Z,57.79
2022-12-15T11:04:02.612Z,57.98
2022-12-15T11:06:34.463Z,58.03
2022-12-15T11:09:21.678Z,58.15
2022-12-15T11:12:11.948Z,57.72
2022-12-15T11:14:46.164Z,57.84
2022-12-15T11:17:17.824Z,57.96
2022-12-15T11:19:54.002Z,57.96
2022-12-15T11:22:37.067Z,58.47
2022-12-15T11:25:10.903Z,58.31
2022-12-15T11:27:43.508Z,58.78
2022-12-15T11:30:15.177Z,58.96
2022-12-15T11:32:45.645Z,59.30
2022-12-15T11:35:20.600Z,59.80
2022-12-15T11:37:52.997Z,60.36
2022-12-15T11:40:31.862Z,60.86
2022-12-15T11:43:18.578Z,61.59
2022-12-15T11:45:55.363Z,62.30
2022-12-15T11:48:27.850Z,62.63
2022-12-15T11:51:00.838Z,63.12
2022-12-15T11:53:57.858Z,63.54
2022-12-15T11:56:32.226Z,64.27
2022-12-15T11:59:20.270Z,64.56
2022-12-15T12:02:05.178Z,64.88
2022-12-15T12:04:44.090Z,65.75
2022-12-15T12:07:23.475Z,65.73
2022-12-15T12:10:06.168Z,66.21
2022-12-15T12:12:41.282Z,66.55
2022-12-15T12:15:27.780Z,66.39
2022-12-15T12:18:02.613Z,66.05
2022-12-15T12:20:42.182Z,65.41
2022-12-15T12:23:17.935Z,65.25
2022-12-15T12:26:02.630Z,64.97
2022-12-15T12:28:40.851Z,64.50
2022-12-15T12:31:21.406Z,64.60
2022-12-15T12:33:53.003Z,64.10
2022-12-15T12:36:20.732Z,64.07
2022-12-15T12:38:51.199Z,64.61
2022-12-15T12:41:31.719Z,64.78
2022-12-15T12:44:03.169Z,64.74
2022-12-15T12:46:34.603Z,64.63
2022-12-15T12:49:07.016Z,64.86
2022-12-15T12:51:36.210Z,64.77
2022-12-15T12:54:11.778Z,65.16
2022-12-15T12:56:44.001Z,65.62
2022-12-15T12:59:39.036Z,66.19
2022-12-15T13:02:42.058Z,66.35
2022-12-15T13:05:25.439Z,66.85
2022-12-15T13:07:56.242Z,67.18
2022-12-15T13:10:25.731Z,66.94
2022-12-15T13:12:55.871Z,67.14
2022-12-15T13:15:38.199Z,67.13
2022-12-15T13:18:16.205Z,67.25
2022-12-15T13:20:45.368Z,67.46
2022-12-15T13:23:37.491Z,67.43
2022-12-15T13:26:16.036Z,67.62
2022-12-15T13:28:52.014Z,67.48
2022-12-15T13:31:34.763Z,67.33
2022-12-15T13:34:13.941Z,67.23
2022-12-15T13:37:00.231Z,67.39
2022-12-15T13:39:59.519Z,67.26
2022-12-15T13:42:51.263Z,67.72
2022-12-15T13:45:50.219Z,67.64
2022-12-15T13:48:41.158Z,67.29
2022-12-15T13:51:25.501Z,67.42
2022-12-15T13:53:58.528Z,67.35
2022-12-15T13:56:42.780Z,66.86
2022-12-15T13:59:20.358Z,66.20
2022-12-15T14:01:53.862Z,65.92
2022-12-15T14:04:22.860Z,65.60
2022-12-15T14:06:53.849Z,65.28
2022-12-15T14:09:26.894Z,65.56
2022-12-15T14:11:55.041Z,65.85
2022-12-15T14:14:27.695Z,65.86
2022-12-15T14:17:04.723Z,66.16
2022-12-15T14:19:39.874Z,66.25
2022-12-15T14:22:25.178Z,66.63
2022-12-15T14:25:08.741Z,66.30
2022-12-15T14:27:36.497Z,66.10
2022-12-15T14:30:22.247Z,66.20
2022-12-15T14:32:56.368Z,66.15
2022-12-15T14:35:30.852Z,66.48
2022-12-15T14:38:02.024Z,66.55
2022-12-15T14:40:30.851Z,66.83
2022-12-15T14:42:59.053Z,66.83
2022-12-15T14:45:29.440Z,67.21
2022-12-15T14:50:51.240Z,67.12
2022-12-15T14:53:22.011Z,66.97
2022-12-15T14:55:49.829Z,67.74
2022-12-15T14:58:33.201Z,67.71
2022-12-15T15:01:01.926Z,68.03
2022-12-15T15:03:03.660Z,60.59
2022-12-15T15:03:40.844Z,67.89
2022-12-15T15:06:18.789Z,67.64
2022-12-15T15:08:49.281Z,67.31
2022-12-15T15:11:29.336Z,66.97
2022-12-15T15:13:59.607Z,66.50
2022-12-15T15:16:27.535Z,66.33
2022-12-15T15:18:57.760Z,66.28
2022-12-15T15:21:28.176Z,66.74
2022-12-15T15:24:00.304Z,67.04
2022-12-15T15:26:28.757Z,67.23
2022-12-15T15:28:56.735Z,67.41
2022-12-15T15:31:35.245Z,67.25
2022-12-15T15:34:09.311Z,67.16
2022-12-15T15:36:39.380Z,67.15
2022-12-15T15:39:13.599Z,67.30
2022-12-15T15:41:41.397Z,67.30
2022-12-15T15:44:14.478Z,66.81
2022-12-15T15:46:47.324Z,66.73
2022-12-15T15:49:19.499Z,67.58
2022-12-15T15:51:47.263Z,67.38
2022-12-15T15:54:17.506Z,67.49
2022-12-15T15:56:45.261Z,67.54
2022-12-15T15:59:16.373Z,67.68
2022-12-15T16:01:44.288Z,68.20
2022-12-15T16:04:12.281Z,68.51
2022-12-15T16:06:47.006Z,68.72
2022-12-15T16:09:17.037Z,69.12
2022-12-15T16:11:46.179Z,68.64
2022-12-15T16:14:15.586Z,68.62
2022-12-15T16:16:43.860Z,68.52
2022-12-15T16:19:12.086Z,69.13
2022-12-15T16:21:41.923Z,68.71
2022-12-15T16:24:12.390Z,68.65
2022-12-15T16:26:47.158Z,68.65
2022-12-15T16:29:17.372Z,68.77
2022-12-15T16:31:45.995Z,69.00
2022-12-15T16:34:14.167Z,68.82
2022-12-15T16:36:43.775Z,68.69
2022-12-15T16:39:24.706Z,68.55
2022-12-15T16:41:53.962Z,68.63
2022-12-15T16:44:22.257Z,68.41
2022-12-15T16:46:50.009Z,68.16
2022-12-15T16:49:18.138Z,67.61
2022-12-15T16:51:49.074Z,67.89
2022-12-15T16:54:20.829Z,67.91
2022-12-15T16:56:48.783Z,68.28
2022-12-15T16:59:34.867Z,68.30
2022-12-15T17:02:04.089Z,67.86
2022-12-15T17:04:32.003Z,67.54
2022-12-15T17:07:01.196Z,67.23
2022-12-15T17:09:29.660Z,67.62
2022-12-15T17:11:58.958Z,67.71
2022-12-15T17:14:26.755Z,67.72
2022-12-15T17:16:54.978Z,68.07
2022-12-15T17:19:22.894Z,68.42
2022-12-15T17:21:53.511Z,68.94
2022-12-15T17:24:23.079Z,69.17
2022-12-15T17:26:51.448Z,68.85
2022-12-15T17:29:22.845Z,68.70
2022-12-15T17:31:50.842Z,68.43
2022-12-15T17:34:27.016Z,68.41
2022-12-15T17:36:55.303Z,68.19
2022-12-15T17:39:24.642Z,68.45
2022-12-15T17:42:01.560Z,68.14
2022-12-15T17:44:35.058Z,68.17
2022-12-15T17:47:09.641Z,68.16
2022-12-15T17:49:38.829Z,68.24
2022-12-15T17:52:18.497Z,68.75
2022-12-15T17:54:47.540Z,68.92
2022-12-15T17:57:15.170Z,68.61
2022-12-15T17:59:44.909Z,69.08
2022-12-15T18:02:16.292Z,69.03
2022-12-15T18:04:45.036Z,68.87
2022-12-15T18:07:17.978Z,68.41
2022-12-15T18:09:47.811Z,68.65
2022-12-15T18:12:20.130Z,69.03
2022-12-15T18:14:47.985Z,69.07
2022-12-15T18:17:15.859Z,69.01
2022-12-15T18:19:43.503Z,69.17
2022-12-15T18:22:14.321Z,69.00
2022-12-15T18:24:42.260Z,69.42
2022-12-15T18:27:20.294Z,69.18
2022-12-15T18:29:48.032Z,68.87
2022-12-15T18:32:16.891Z,69.04
2022-12-15T18:34:44.715Z,69.13
2022-12-15T18:37:16.398Z,68.78
2022-12-15T18:39:45.052Z,68.36
2022-12-15T18:42:18.211Z,68.41
2022-12-15T18:44:48.374Z,69.11
2022-12-15T18:47:18.195Z,69.18
2022-12-15T18:49:46.270Z,68.88
2022-12-15T18:52:18.982Z,68.62
2022-12-15T18:54:47.946Z,68.91
2022-12-15T18:57:28.700Z,68.76
2022-12-15T18:59:59.384Z,68.78
2022-12-15T19:02:27.264Z,68.63
2022-12-15T19:04:55.414Z,68.69
2022-12-15T19:07:23.335Z,68.44
2022-12-15T19:09:51.314Z,68.60
2022-12-15T19:12:19.335Z,68.87
2022-12-15T19:14:50.640Z,69.03
2022-12-15T19:17:38.310Z,68.58
2022-12-15T19:20:25.043Z,69.08
2022-12-15T19:22:53.659Z,69.15
2022-12-15T19:25:26.138Z,69.16
2022-12-15T19:27:59.152Z,69.13
2022-12-15T19:30:31.108Z,68.94
2022-12-15T19:32:58.826Z,68.79
2022-12-15T19:35:28.355Z,68.66
2022-12-15T19:37:57.855Z,68.87
2022-12-15T19:40:29.402Z,69.07
2022-12-15T19:42:58.240Z,69.46
2022-12-15T19:45:29.139Z,69.18
2022-12-15T19:47:56.979Z,69.44
2022-12-15T19:50:26.450Z,68.68
2022-12-15T19:52:58.052Z,68.45
2022-12-15T19:55:28.876Z,68.67
2022-12-15T19:57:56.566Z,68.40
2022-12-15T20:00:25.253Z,68.21
2022-12-15T20:02:56.688Z,68.03
2022-12-15T20:05:25.946Z,68.00
2022-12-15T20:07:54.782Z,68.02
2022-12-15T20:10:31.228Z,68.15
2022-12-15T20:13:00.444Z,67.67
2022-12-15T20:15:28.579Z,67.24
2022-12-15T20:17:57.970Z,67.29
2022-12-15T20:20:27.920Z,67.53
2022-12-15T20:22:57.767Z,67.54
2022-12-15T20:25:28.472Z,66.98
2022-12-15T20:27:56.622Z,67.02
2022-12-15T20:30:27.152Z,67.07
2022-12-15T20:32:55.194Z,67.54
2022-12-15T20:35:25.232Z,67.51
2022-12-15T20:37:53.470Z,66.81
2022-12-15T20:40:24.411Z,67.09
2022-12-15T20:42:53.308Z,67.27
2022-12-15T20:45:23.897Z,66.80
2022-12-15T20:47:54.205Z,66.78
2022-12-15T20:50:28.945Z,66.47
2022-12-15T20:52:56.657Z,66.67
2022-12-15T20:55:24.511Z,66.53
2022-12-15T20:57:52.208Z,66.52
2022-12-15T21:00:20.756Z,66.35
2022-12-15T21:02:49.209Z,66.37
2022-12-15T21:05:26.671Z,66.67
2022-12-15T21:07:55.696Z,66.74
2022-12-15T21:10:23.318Z,66.64
2022-12-15T21:12:51.801Z,66.48
2022-12-15T21:15:22.147Z,66.08
2022-12-15T21:18:29.184Z,65.73
2022-12-15T21:20:43.904Z,65.26
2022-12-15T21:23:20.721Z,65.20
2022-12-15T21:25:48.884Z,65.40
2022-12-15T21:28:17.170Z,65.48
2022-12-15T21:30:45.141Z,65.48
2022-12-15T21:33:13.139Z,65.59
2022-12-15T21:35:42.790Z,66.22
2022-12-15T21:38:34.923Z,65.78
2022-12-15T21:41:05.183Z,65.49
2022-12-15T21:43:36.392Z,65.37
2022-12-15T21:46:12.348Z,65.43
2022-12-15T21:48:57.608Z,65.18
2022-12-15T21:51:25.839Z,65.24
2022-12-15T21:53:55.064Z,64.96
2022-12-15T21:56:22.914Z,64.79
2022-12-15T21:58:52.617Z,64.72
2022-12-15T22:01:24.629Z,65.07
2022-12-15T22:03:54.650Z,65.25
2022-12-15T22:06:24.399Z,65.04
2022-12-15T22:08:55.143Z,64.99
2022-12-15T22:11:24.857Z,64.67
2022-12-15T22:13:55.163Z,64.69
2022-12-15T22:16:23.729Z,64.87
2022-12-15T22:18:53.415Z,64.93
2022-12-15T22:21:23.297Z,65.11
2022-12-15T22:23:51.140Z,65.10
2022-12-15T22:26:24.867Z,65.34
2022-12-15T22:28:52.719Z,65.13
2022-12-15T22:31:22.709Z,64.58
2022-12-15T22:33:50.531Z,64.34
2022-12-15T22:36:18.477Z,64.22
2022-12-15T22:38:46.947Z,64.21
2022-12-15T22:41:19.820Z,64.18
2022-12-15T22:43:51.582Z,63.91
2022-12-15T22:46:22.611Z,63.58
2022-12-15T22:48:52.231Z,63.52
2022-12-15T22:51:20.814Z,63.16
2022-12-15T22:53:48.898Z,62.92
2022-12-15T22:56:23.728Z,62.80
2022-12-15T22:58:57.214Z,62.77
2022-12-15T23:01:26.802Z,62.32
2022-12-15T23:03:55.609Z,61.82
2022-12-15T23:06:23.788Z,62.34
2022-12-15T23:08:55.647Z,62.04
2022-12-15T23:11:39.403Z,61.19
2022-12-15T23:14:10.435Z,61.20
2022-12-15T23:16:37.976Z,60.91
2022-12-15T23:19:08.351Z,60.72
2022-12-15T23:21:37.013Z,61.05
2022-12-15T23:24:04.959Z,60.72
2022-12-15T23:26:33.003Z,60.80
2022-12-15T23:29:00.691Z,60.66
2022-12-15T23:31:30.253Z,60.95
2022-12-15T23:33:58.204Z,61.00
2022-12-15T23:36:25.995Z,61.60
2022-12-15T23:38:56.026Z,61.18
2022-12-15T23:41:23.714Z,61.22
2022-12-15T23:43:51.477Z,61.21
2022-12-15T23:46:19.703Z,61.30
2022-12-15T23:48:48.778Z,61.00
2022-12-15T23:51:18.612Z,61.27
2022-12-15T23:53:47.872Z,60.73
2022-12-15T23:56:17.807Z,61.16
2022-12-15T23:58:47.246Z,60.86
